Time;durP1;ratioP1;P1;durP2;ratioP2;P2;SDS_P1;SDS_P2;PMS_P1;PMS_P2;Temp;Humidity;BMP_temperature;BMP_pressure;BME280_temperature;BME280_humidity;BME280_pressure;Samples;Min_cycle;Max_cycle;Signal;HPM_P1;HPM_P2
2024/03/15 00:01:25;;;;;;;3.88;2.10;;;15.70;99.90;;;;;;10056919;28;20365;-73
2024/03/15 00:06:17;;;;;;;4.82;2.40;;;15.80;99.90;;;;;;10077341;28;20040;-72
2024/03/15 00:11:08;;;;;;;4.88;2.80;;;15.80;99.90;;;;;;10081507;28;20032;-72
2024/03/15 00:15:58;;;;;;;5.35;2.30;;;15.80;99.90;;;;;;10057266;28;20052;-73
2024/03/15 00:20:49;;;;;;;3.05;1.77;;;15.80;99.90;;;;;;10071472;28;20040;-73
2024/03/15 00:25:41;;;;;;;2.92;1.98;;;15.80;99.90;;;;;;10057199;28;20047;-73
2024/03/15 00:30:32;;;;;;;3.33;2.10;;;15.80;99.90;;;;;;10076887;28;20021;-72
2024/03/15 00:35:22;;;;;;;2.95;2.00;;;15.70;99.90;;;;;;10091249;28;20032;-72
2024/03/15 00:40:13;;;;;;;2.22;1.70;;;15.80;99.90;;;;;;10062311;28;20045;-71
2024/03/15 00:45:05;;;;;;;4.65;2.10;;;15.70;99.90;;;;;;10052292;28;20758;-73
2024/03/15 00:49:55;;;;;;;3.47;2.05;;;15.70;99.90;;;;;;10059363;28;20042;-72
2024/03/15 00:54:47;;;;;;;2.38;1.67;;;15.70;99.90;;;;;;10053415;28;20042;-72
2024/03/15 00:59:38;;;;;;;3.03;2.10;;;15.80;99.90;;;;;;10063197;28;20052;-72
2024/03/15 01:04:29;;;;;;;3.88;2.10;;;15.70;99.90;;;;;;10084419;28;20506;-72
2024/03/15 01:09:20;;;;;;;2.53;1.52;;;15.70;99.90;;;;;;10071965;28;20045;-72
2024/03/15 01:14:11;;;;;;;3.42;2.13;;;15.70;99.90;;;;;;10073732;28;20044;-71
2024/03/15 01:19:03;;;;;;;2.30;1.55;;;15.70;99.90;;;;;;10046060;28;20061;-72
2024/03/15 01:23:54;;;;;;;3.33;1.73;;;15.60;99.90;;;;;;10066197;28;20029;-72
2024/03/15 01:28:45;;;;;;;2.53;1.58;;;15.70;99.90;;;;;;10081911;28;20030;-72
2024/03/15 01:33:36;;;;;;;4.25;2.17;;;15.60;99.90;;;;;;10057817;28;20024;-72
2024/03/15 01:38:26;;;;;;;4.53;1.80;;;15.50;99.90;;;;;;10071469;28;20065;-71
2024/03/15 01:43:17;;;;;;;4.15;1.90;;;15.50;99.90;;;;;;10068763;28;20032;-71
2024/03/15 01:48:08;;;;;;;2.88;2.40;;;15.40;99.90;;;;;;10068992;28;20056;-72
2024/03/15 01:53:00;;;;;;;2.17;1.60;;;15.30;99.90;;;;;;10070335;28;20026;-73
2024/03/15 01:57:50;;;;;;;2.75;1.73;;;15.30;99.90;;;;;;10055818;28;20052;-71
2024/03/15 02:02:41;;;;;;;2.95;1.75;;;15.30;99.90;;;;;;10079683;28;20033;-72
2024/03/15 02:07:32;;;;;;;4.38;2.00;;;15.30;99.90;;;;;;10062147;28;20125;-71
2024/03/15 02:12:24;;;;;;;1.88;1.65;;;15.30;99.90;;;;;;10070471;28;20025;-71
2024/03/15 02:17:18;;;;;;;3.08;1.80;;;15.20;99.90;;;;;;10069053;28;20037;-72
2024/03/15 02:22:09;;;;;;;3.97;2.20;;;15.20;99.90;;;;;;10087947;28;20028;-72
2024/03/15 02:27:01;;;;;;;2.45;1.73;;;15.20;99.90;;;;;;10080465;28;20569;-72
2024/03/15 02:31:52;;;;;;;2.22;1.60;;;15.20;99.90;;;;;;10072766;28;20078;-71
2024/03/15 02:36:43;;;;;;;2.00;1.80;;;15.20;99.90;;;;;;10074796;28;20466;-72
2024/03/15 02:41:34;;;;;;;2.17;1.48;;;15.20;99.90;;;;;;10073518;28;20126;-71
2024/03/15 02:46:25;;;;;;;3.28;1.45;;;15.20;99.90;;;;;;10079503;28;20041;-71
2024/03/15 02:51:16;;;;;;;3.28;1.67;;;15.10;99.90;;;;;;10078451;28;20057;-71
2024/03/15 02:56:06;;;;;;;2.35;1.77;;;15.10;99.90;;;;;;10054672;28;20468;-71
2024/03/15 03:00:57;;;;;;;2.13;1.52;;;15.10;99.90;;;;;;10055529;28;20547;-71
2024/03/15 03:05:48;;;;;;;2.03;1.67;;;15.10;99.90;;;;;;10070179;28;20028;-72
2024/03/15 03:10:38;;;;;;;2.63;2.38;;;15.10;99.90;;;;;;10075306;28;20087;-71
2024/03/15 03:15:29;;;;;;;5.72;1.70;;;15.10;99.90;;;;;;10074295;28;20026;-70
2024/03/15 03:20:20;;;;;;;2.17;1.35;;;15.10;99.90;;;;;;10079716;28;20037;-71
2024/03/15 03:25:12;;;;;;;2.25;1.52;;;15.00;99.90;;;;;;10070845;28;20037;-71
2024/03/15 03:30:03;;;;;;;3.38;1.88;;;15.00;99.90;;;;;;10063047;28;20025;-71
2024/03/15 03:34:54;;;;;;;5.43;2.10;;;15.00;99.90;;;;;;10070444;28;20021;-71
2024/03/15 03:39:46;;;;;;;1.90;1.60;;;15.00;99.90;;;;;;10075428;28;20531;-71
2024/03/15 03:44:36;;;;;;;2.70;1.70;;;14.90;99.90;;;;;;10050565;28;20052;-71
2024/03/15 03:49:27;;;;;;;2.85;1.55;;;14.90;99.90;;;;;;10061490;28;20052;-70
2024/03/15 03:54:17;;;;;;;2.95;1.58;;;14.90;99.90;;;;;;10058556;28;20025;-70
2024/03/15 03:59:08;;;;;;;2.60;1.90;;;14.80;99.90;;;;;;10076203;28;20080;-70
2024/03/15 04:03:59;;;;;;;3.95;2.33;;;14.80;99.90;;;;;;10064783;28;20035;-71
2024/03/15 04:08:49;;;;;;;2.25;1.80;;;14.80;99.90;;;;;;10062822;28;20037;-71
2024/03/15 04:13:40;;;;;;;4.72;1.80;;;14.80;99.90;;;;;;10072146;28;20565;-70
2024/03/15 04:18:32;;;;;;;6.55;1.75;;;14.70;99.90;;;;;;10053248;28;20792;-70
2024/03/15 04:23:23;;;;;;;1.90;1.73;;;14.60;99.90;;;;;;10062007;28;20083;-69
2024/03/15 04:28:14;;;;;;;4.43;1.60;;;14.60;99.90;;;;;;10061724;28;20102;-70
2024/03/15 04:33:06;;;;;;;2.88;1.42;;;14.60;99.90;;;;;;10063076;28;20502;-70
2024/03/15 04:37:56;;;;;;;3.10;2.10;;;14.60;99.90;;;;;;10064668;28;20483;-70
2024/03/15 04:42:47;;;;;;;2.78;1.35;;;14.60;99.90;;;;;;10069478;28;20030;-70
2024/03/15 04:47:38;;;;;;;3.55;1.63;;;14.50;99.90;;;;;;10078304;28;20063;-69
2024/03/15 04:52:29;;;;;;;2.75;1.63;;;14.50;99.90;;;;;;10060385;28;20018;-70
2024/03/15 04:57:25;;;;;;;7.03;1.70;;;14.50;99.90;;;;;;10071755;28;20813;-70
2024/03/15 05:02:15;;;;;;;1.70;1.60;;;14.40;99.90;;;;;;10067238;28;20029;-70
2024/03/15 05:07:06;;;;;;;3.42;2.13;;;14.40;99.90;;;;;;10059475;28;20389;-71
2024/03/15 05:11:58;;;;;;;2.00;1.73;;;14.40;99.90;;;;;;10062993;28;20022;-71
2024/03/15 05:16:55;;;;;;;2.30;1.48;;;14.30;99.90;;;;;;10066584;28;20045;-70
2024/03/15 05:21:46;;;;;;;2.80;1.73;;;14.30;99.90;;;;;;10074516;28;20115;-70
2024/03/15 05:26:36;;;;;;;3.22;1.77;;;14.40;99.90;;;;;;10063851;28;20485;-69
2024/03/15 05:31:27;;;;;;;3.13;1.42;;;14.30;99.90;;;;;;10056729;28;20032;-70
2024/03/15 05:36:18;;;;;;;1.30;1.13;;;14.30;99.90;;;;;;10064210;28;20423;-70
2024/03/15 05:41:09;;;;;;;2.75;1.70;;;14.30;99.90;;;;;;10072092;28;20048;-70
2024/03/15 05:45:59;;;;;;;2.17;1.40;;;14.30;99.90;;;;;;10069347;28;20088;-70
2024/03/15 05:50:50;;;;;;;2.38;1.60;;;14.30;99.90;;;;;;10049336;28;20100;-70
2024/03/15 05:55:40;;;;;;;2.55;1.20;;;14.30;99.90;;;;;;10054721;28;20038;-70
2024/03/15 06:00:33;;;;;;;2.30;1.20;;;14.30;99.90;;;;;;10064019;28;20033;-71
2024/03/15 06:05:23;;;;;;;1.65;1.40;;;14.30;99.90;;;;;;10066805;28;20079;-70
2024/03/15 06:10:17;;;;;;;6.22;1.75;;;14.30;99.90;;;;;;10067584;28;20036;-69
2024/03/15 06:15:11;;;;;;;1.92;1.27;;;14.30;99.90;;;;;;10068960;28;20021;-70
2024/03/15 06:20:03;;;;;;;2.77;1.40;;;14.30;99.90;;;;;;10081361;28;20047;-70
2024/03/15 06:24:56;;;;;;;3.28;1.15;;;14.30;99.90;;;;;;10069539;28;20029;-70
2024/03/15 06:29:55;;;;;;;2.85;1.50;;;14.30;99.90;;;;;;10083213;28;20430;-70
2024/03/15 06:34:45;;;;;;;3.30;1.58;;;14.30;99.90;;;;;;10071756;28;20040;-70
2024/03/15 06:44:39;;;;;;;4.97;2.33;;;14.40;99.90;;;;;;10068515;28;20025;-69
2024/03/15 06:49:48;;;;;;;3.47;1.38;;;14.40;99.90;;;;;;10046763;28;20569;-71
2024/03/15 06:54:39;;;;;;;4.22;2.17;;;14.50;99.90;;;;;;10042440;28;20032;-70
2024/03/15 06:59:30;;;;;;;1.67;1.52;;;14.50;99.90;;;;;;10041954;28;20030;-70
2024/03/15 07:04:21;;;;;;;3.03;1.65;;;14.50;99.90;;;;;;10056176;28;20669;-72
2024/03/15 07:09:14;;;;;;;5.07;1.50;;;14.50;99.90;;;;;;10063388;28;20080;-71
2024/03/15 07:14:08;;;;;;;3.42;1.40;;;14.50;99.90;;;;;;10063902;28;20107;-71
2024/03/15 07:19:00;;;;;;;2.45;1.63;;;14.60;99.90;;;;;;10059143;28;20033;-71
2024/03/15 07:23:50;;;;;;;2.83;1.33;;;14.50;99.90;;;;;;10052463;28;20022;-72
2024/03/15 07:28:41;;;;;;;3.60;1.55;;;14.60;99.90;;;;;;10058533;28;20025;-72
2024/03/15 07:33:34;;;;;;;3.28;1.80;;;14.60;99.90;;;;;;10059142;28;20041;-71
2024/03/15 07:38:26;;;;;;;3.28;1.55;;;14.60;99.90;;;;;;10060265;28;20029;-71
2024/03/15 07:43:16;;;;;;;2.33;1.40;;;14.70;99.90;;;;;;10054499;28;20040;-70
2024/03/15 07:48:08;;;;;;;2.03;1.50;;;14.80;99.90;;;;;;10060951;28;20505;-70
2024/03/15 07:52:59;;;;;;;3.05;1.33;;;14.80;99.90;;;;;;10047925;28;20025;-74
2024/03/15 07:57:49;;;;;;;4.00;1.90;;;14.90;99.90;;;;;;10078007;28;20652;-71
2024/03/15 08:02:41;;;;;;;2.65;1.70;;;15.00;99.90;;;;;;10069429;28;20520;-72
2024/03/15 08:07:32;;;;;;;4.63;1.73;;;15.00;99.90;;;;;;10052827;28;20025;-72
2024/03/15 08:12:24;;;;;;;3.33;1.83;;;15.00;99.90;;;;;;10056237;28;20797;-72
2024/03/15 08:17:14;;;;;;;3.10;1.40;;;15.00;99.90;;;;;;10046438;28;20082;-70
2024/03/15 08:22:08;;;;;;;3.58;1.35;;;15.00;99.90;;;;;;10078231;28;20025;-71
2024/03/15 08:26:59;;;;;;;2.38;1.30;;;15.00;99.90;;;;;;10066567;28;20037;-72
2024/03/15 08:31:50;;;;;;;2.15;1.55;;;15.00;99.90;;;;;;10059584;28;20511;-71
2024/03/15 08:36:41;;;;;;;2.22;1.65;;;15.00;99.90;;;;;;10058765;28;20044;-71
2024/03/15 08:41:31;;;;;;;1.70;1.20;;;15.00;99.90;;;;;;10069983;28;20034;-72
2024/03/15 08:46:22;;;;;;;3.05;1.63;;;14.90;99.90;;;;;;10057439;28;20037;-73
2024/03/15 08:51:13;;;;;;;2.67;1.40;;;14.90;99.90;;;;;;10065349;28;20036;-71
2024/03/15 08:56:04;;;;;;;2.35;1.65;;;14.90;99.90;;;;;;10060190;28;20029;-72
2024/03/15 09:00:56;;;;;;;3.75;1.63;;;14.90;99.90;;;;;;10062109;28;20063;-73
2024/03/15 09:05:46;;;;;;;3.05;1.60;;;14.90;99.90;;;;;;10057805;28;20025;-73
2024/03/15 09:10:37;;;;;;;3.58;1.73;;;14.90;99.90;;;;;;10066724;28;20033;-74
2024/03/15 09:15:28;;;;;;;2.10;1.38;;;14.90;99.90;;;;;;10069548;28;20032;-73
2024/03/15 09:20:19;;;;;;;2.58;1.48;;;15.00;99.90;;;;;;10072530;28;20033;-74
2024/03/15 09:25:18;;;;;;;2.45;1.45;;;15.10;99.90;;;;;;10077226;28;20045;-73
2024/03/15 09:30:16;;;;;;;2.80;1.80;;;15.20;99.90;;;;;;10063448;28;20436;-73
2024/03/15 09:35:07;;;;;;;2.72;1.80;;;15.20;99.90;;;;;;10069119;28;20598;-74
2024/03/15 09:39:58;;;;;;;3.15;1.75;;;15.30;99.90;;;;;;10070944;28;20037;-73
2024/03/15 09:44:49;;;;;;;3.47;1.90;;;15.40;99.90;;;;;;10053472;28;20029;-72
2024/03/15 09:49:44;;;;;;;2.92;2.00;;;15.40;99.90;;;;;;10069249;28;20483;-72
2024/03/15 09:54:34;;;;;;;2.93;2.27;;;15.40;99.90;;;;;;10057315;28;20092;-72
2024/03/15 09:59:31;;;;;;;4.25;1.30;;;15.40;99.90;;;;;;10066454;28;20611;-72
2024/03/15 10:04:21;;;;;;;3.80;1.33;;;15.60;99.90;;;;;;10081216;28;20037;-72
2024/03/15 10:09:12;;;;;;;2.20;1.52;;;15.70;99.90;;;;;;10059761;28;20037;-73
2024/03/15 10:14:03;;;;;;;2.28;1.80;;;15.70;99.90;;;;;;10066931;28;20029;-74
2024/03/15 10:18:54;;;;;;;2.80;1.83;;;15.80;99.90;;;;;;10055299;28;20044;-73
2024/03/15 10:23:45;;;;;;;3.42;1.05;;;15.80;99.90;;;;;;10059043;28;20030;-73
2024/03/15 10:28:36;;;;;;;4.07;1.50;;;15.90;99.90;;;;;;10060668;28;20038;-72
2024/03/15 10:33:27;;;;;;;2.10;1.33;;;16.00;99.90;;;;;;10059719;28;20169;-73
2024/03/15 10:38:17;;;;;;;2.38;1.23;;;16.00;99.90;;;;;;10071197;28;20048;-74
2024/03/15 10:43:11;;;;;;;3.22;0.93;;;16.00;99.90;;;;;;10055768;28;20024;-72
2024/03/15 10:48:08;;;;;;;1.70;1.13;;;16.00;99.90;;;;;;10069915;28;20108;-72
2024/03/15 10:52:59;;;;;;;2.53;1.02;;;16.00;99.90;;;;;;10065665;28;20031;-73
2024/03/15 10:57:54;;;;;;;2.33;1.00;;;15.90;99.90;;;;;;10092832;28;20443;-72
2024/03/15 11:02:46;;;;;;;2.60;1.25;;;16.00;99.90;;;;;;10059597;28;20025;-71
2024/03/15 11:07:37;;;;;;;3.40;1.10;;;16.10;99.90;;;;;;10049817;28;20021;-69
2024/03/15 11:12:36;;;;;;;1.73;1.40;;;16.20;99.90;;;;;;10064541;28;20079;-69
2024/03/15 11:17:27;;;;;;;3.45;1.48;;;16.30;99.90;;;;;;10050854;28;20550;-70
2024/03/15 11:22:19;;;;;;;2.78;1.35;;;16.50;99.90;;;;;;10046821;28;20395;-70
2024/03/15 11:27:16;;;;;;;1.45;0.90;;;16.60;99.90;;;;;;10052107;28;20024;-69
2024/03/15 11:32:12;;;;;;;2.15;0.85;;;16.60;99.90;;;;;;10062785;28;20021;-70
2024/03/15 11:37:04;;;;;;;2.65;1.50;;;16.60;99.90;;;;;;10056342;28;20034;-69
2024/03/15 11:42:04;;;;;;;2.13;0.98;;;16.50;99.90;;;;;;10062274;28;20563;-66
2024/03/15 11:46:55;;;;;;;3.05;1.08;;;16.50;99.90;;;;;;10042784;28;20497;-67
2024/03/15 11:51:57;;;;;;;3.75;1.05;;;16.50;99.90;;;;;;10055855;28;20116;-71
2024/03/15 11:56:57;;;;;;;2.00;0.95;;;16.50;99.90;;;;;;10059859;28;20041;-69
2024/03/15 12:01:47;;;;;;;1.42;0.63;;;16.50;99.90;;;;;;10054698;28;20033;-69
2024/03/15 12:06:39;;;;;;;1.88;0.80;;;16.50;99.90;;;;;;10058826;28;20034;-68
2024/03/15 12:11:35;;;;;;;1.50;0.95;;;16.60;99.90;;;;;;10056656;28;20037;-68
2024/03/15 12:16:27;;;;;;;2.00;0.75;;;16.70;99.90;;;;;;10062438;28;20035;-68
2024/03/15 12:21:18;;;;;;;1.10;0.98;;;16.70;99.90;;;;;;10057475;28;20033;-68
2024/03/15 12:26:09;;;;;;;2.17;0.70;;;16.80;99.90;;;;;;10055210;28;20039;-68
2024/03/15 12:30:59;;;;;;;1.55;0.85;;;16.70;99.90;;;;;;10057932;28;20041;-68
2024/03/15 12:35:50;;;;;;;1.58;1.10;;;16.70;99.90;;;;;;10070501;28;20083;-68
2024/03/15 12:40:44;;;;;;;2.13;1.00;;;16.70;99.90;;;;;;10057177;28;20055;-69
2024/03/15 12:45:35;;;;;;;3.28;1.25;;;16.70;99.90;;;;;;10062192;28;20029;-69
2024/03/15 12:50:27;;;;;;;1.58;0.93;;;16.80;99.90;;;;;;10058589;28;20045;-69
2024/03/15 12:55:17;;;;;;;4.32;0.95;;;16.70;99.90;;;;;;10052264;28;20034;-70
2024/03/15 13:00:14;;;;;;;1.58;0.95;;;16.80;99.90;;;;;;10064488;28;20033;-68
2024/03/15 13:05:14;;;;;;;2.80;1.55;;;16.90;99.90;;;;;;10059910;28;20105;-69
2024/03/15 13:10:05;;;;;;;1.52;0.77;;;17.00;99.90;;;;;;10070646;28;20031;-66
2024/03/15 13:14:56;;;;;;;1.42;0.55;;;16.90;99.90;;;;;;10071710;28;20029;-68
2024/03/15 13:19:46;;;;;;;2.22;0.77;;;16.90;99.90;;;;;;10051423;28;20030;-68
2024/03/15 13:24:37;;;;;;;3.17;0.93;;;16.90;99.90;;;;;;10069508;28;20522;-69
2024/03/15 13:29:28;;;;;;;1.67;1.13;;;16.80;99.90;;;;;;10057717;28;20486;-68
2024/03/15 13:34:19;;;;;;;0.82;0.75;;;16.70;99.90;;;;;;10066090;28;20034;-69
2024/03/15 13:39:20;;;;;;;1.92;0.75;;;16.70;99.90;;;;;;10071930;28;20091;-68
2024/03/15 13:44:13;;;;;;;1.40;0.70;;;16.60;99.90;;;;;;10079135;28;20094;-70
2024/03/15 13:49:03;;;;;;;4.30;1.50;;;16.60;99.90;;;;;;10084991;28;20106;-69
2024/03/15 13:53:55;;;;;;;3.38;0.85;;;16.50;99.90;;;;;;10066884;28;20029;-70
2024/03/15 13:58:45;;;;;;;3.65;0.88;;;16.50;99.90;;;;;;10070806;28;20071;-70
2024/03/15 14:03:36;;;;;;;1.52;1.08;;;16.60;99.90;;;;;;10061756;28;20049;-70
2024/03/15 14:08:27;;;;;;;2.13;0.90;;;16.60;99.90;;;;;;10063982;28;20029;-70
2024/03/15 14:13:17;;;;;;;1.42;0.93;;;16.50;99.90;;;;;;10074027;28;20136;-73
2024/03/15 14:18:08;;;;;;;1.02;0.90;;;16.60;99.90;;;;;;10060556;28;20507;-72
2024/03/15 14:22:59;;;;;;;3.88;0.90;;;16.60;99.90;;;;;;10068653;28;20273;-74
2024/03/15 14:27:54;;;;;;;1.58;1.25;;;16.60;99.90;;;;;;10073938;28;20456;-73
2024/03/15 14:32:45;;;;;;;;;;;16.50;99.90;;;;;;10075288;28;20021;-74
2024/03/15 14:37:37;;;;;;;2.85;0.90;;;16.50;99.90;;;;;;10078277;28;20594;-75
2024/03/15 14:42:32;;;;;;;2.90;0.90;;;16.50;99.90;;;;;;10081479;28;20080;-72
2024/03/15 14:47:23;;;;;;;2.85;1.40;;;16.60;99.90;;;;;;10072579;28;20439;-71
2024/03/15 14:52:13;;;;;;;2.40;1.05;;;16.70;99.90;;;;;;10052392;28;20030;-67
2024/03/15 14:57:04;;;;;;;1.23;0.88;;;16.60;99.90;;;;;;10057277;28;20033;-70
2024/03/15 15:01:55;;;;;;;3.30;1.00;;;16.70;99.90;;;;;;10074646;28;20033;-71
2024/03/15 15:06:46;;;;;;;1.65;1.25;;;16.70;99.90;;;;;;10062154;28;20519;-70
2024/03/15 15:11:37;;;;;;;3.17;0.73;;;16.70;99.90;;;;;;10079643;28;20033;-68
2024/03/15 15:16:28;;;;;;;1.85;1.30;;;16.80;99.90;;;;;;10064959;28;20033;-73
2024/03/15 15:21:19;;;;;;;3.75;1.38;;;16.90;99.90;;;;;;10086426;28;20790;-72
2024/03/15 15:26:09;;;;;;;1.40;0.80;;;17.10;99.90;;;;;;10080097;28;20052;-72
2024/03/15 15:31:00;;;;;;;2.50;0.88;;;17.40;99.90;;;;;;10068250;28;20032;-72
2024/03/15 15:35:51;;;;;;;3.47;1.23;;;17.50;99.90;;;;;;10069002;28;20064;-73
2024/03/15 15:40:41;;;;;;;3.25;0.93;;;17.60;99.90;;;;;;10079628;28;20041;-73
2024/03/15 15:45:33;;;;;;;3.47;1.08;;;17.80;99.90;;;;;;10050631;28;20565;-71
2024/03/15 15:50:24;;;;;;;1.25;0.90;;;18.20;99.90;;;;;;10066043;28;20033;-72
2024/03/15 15:55:16;;;;;;;2.70;1.00;;;18.10;99.90;;;;;;10066680;28;20140;-71
2024/03/15 16:00:10;;;;;;;1.42;1.13;;;17.80;99.90;;;;;;10055371;28;20132;-73
2024/03/15 16:05:00;;;;;;;2.20;1.10;;;17.70;99.90;;;;;;10063913;28;20324;-73
2024/03/15 16:09:51;;;;;;;1.70;0.75;;;17.60;99.90;;;;;;10066411;28;20052;-74
2024/03/15 16:14:43;;;;;;;1.95;0.98;;;17.50;99.90;;;;;;10059514;28;20025;-73
2024/03/15 16:19:34;;;;;;;2.53;1.15;;;17.50;99.90;;;;;;10056757;28;20191;-74
2024/03/15 16:24:25;;;;;;;3.42;1.33;;;17.40;99.90;;;;;;10063046;28;20028;-73
2024/03/15 16:29:15;;;;;;;3.05;1.15;;;17.30;99.90;;;;;;10073642;28;20025;-73
2024/03/15 16:34:06;;;;;;;2.33;1.30;;;17.20;99.90;;;;;;10057564;28;20021;-73
2024/03/15 16:38:57;;;;;;;3.08;1.38;;;17.20;99.90;;;;;;10065417;28;20071;-74
2024/03/15 16:43:47;;;;;;;5.25;1.60;;;17.20;99.90;;;;;;10071246;28;20032;-74
2024/03/15 16:48:38;;;;;;;3.80;1.23;;;17.20;99.90;;;;;;10074972;28;20064;-72
2024/03/15 16:53:30;;;;;;;2.05;1.33;;;17.20;99.90;;;;;;10068894;28;20029;-73
2024/03/15 16:58:24;;;;;;;1.73;1.50;;;17.20;99.90;;;;;;10040901;28;20046;-75
2024/03/15 17:03:15;;;;;;;3.30;1.23;;;17.20;99.90;;;;;;10050259;28;20032;-73
2024/03/15 17:08:06;;;;;;;1.98;1.17;;;17.10;99.90;;;;;;10059437;28;20036;-74
2024/03/15 17:12:57;;;;;;;1.80;1.10;;;17.10;99.90;;;;;;10060789;28;20025;-73
2024/03/15 17:17:47;;;;;;;6.63;2.45;;;17.10;99.90;;;;;;10069120;28;20041;-73
2024/03/15 17:22:38;;;;;;;3.58;2.05;;;17.20;99.90;;;;;;10068801;28;20044;-73
2024/03/15 17:27:29;;;;;;;3.17;1.80;;;17.10;99.90;;;;;;10057917;28;20033;-74
2024/03/15 17:32:20;;;;;;;2.75;1.45;;;17.00;99.90;;;;;;10054888;28;20113;-72
2024/03/15 17:37:11;;;;;;;2.13;1.20;;;17.00;99.90;;;;;;10062347;28;20103;-73
2024/03/15 17:42:01;;;;;;;4.53;1.73;;;17.00;99.90;;;;;;10071951;28;20084;-75
2024/03/15 17:46:52;;;;;;;3.92;1.77;;;17.00;99.90;;;;;;10077050;28;20053;-75
2024/03/15 17:51:43;;;;;;;6.10;1.42;;;16.90;99.90;;;;;;10049699;28;20040;-73
2024/03/15 17:56:33;;;;;;;2.92;1.23;;;16.90;99.90;;;;;;10046463;28;20045;-73
2024/03/15 18:01:24;;;;;;;3.05;1.40;;;16.90;99.90;;;;;;10063791;28;20052;-74
2024/03/15 18:06:15;;;;;;;2.60;1.05;;;16.90;99.90;;;;;;10073804;28;20569;-73
2024/03/15 18:11:06;;;;;;;1.92;0.90;;;16.70;99.90;;;;;;10080680;28;20040;-74
2024/03/15 18:15:56;;;;;;;1.83;0.90;;;16.80;99.90;;;;;;10077692;28;20391;-74
2024/03/15 18:20:47;;;;;;;2.47;1.13;;;16.80;99.90;;;;;;10085927;28;20029;-75
2024/03/15 18:25:37;;;;;;;1.67;1.00;;;16.80;99.90;;;;;;10074002;28;20612;-74
2024/03/15 18:30:28;;;;;;;2.15;1.00;;;16.80;99.90;;;;;;10077967;28;20057;-73
2024/03/15 18:35:19;;;;;;;2.90;0.88;;;16.70;99.90;;;;;;10071959;28;20163;-73
2024/03/15 18:40:10;;;;;;;3.95;1.30;;;16.80;99.90;;;;;;10072300;28;20037;-73
2024/03/15 18:45:01;;;;;;;4.65;1.40;;;16.80;99.90;;;;;;10064222;28;20025;-73
2024/03/15 18:56:18;;;;;;;2.47;1.48;;;16.80;99.90;;;;;;10000802;28;20036;-74
2024/03/15 19:01:13;;;;;;;2.55;1.50;;;16.80;99.90;;;;;;10068684;28;20065;-74
2024/03/15 19:06:07;;;;;;;3.90;2.00;;;16.70;99.90;;;;;;10070360;28;20108;-73
2024/03/15 19:10:57;;;;;;;1.75;1.25;;;16.60;99.90;;;;;;10073983;28;20029;-74
2024/03/15 19:15:48;;;;;;;1.33;1.05;;;15.80;99.90;;;;;;10057127;28;20479;-74
2024/03/15 19:20:39;;;;;;;0.95;0.70;;;14.90;99.90;;;;;;10053962;28;20044;-75
2024/03/15 19:25:30;;;;;;;2.97;1.25;;;14.70;99.90;;;;;;10071827;28;20036;-73
2024/03/15 19:30:21;;;;;;;2.38;0.98;;;14.70;99.90;;;;;;10051966;28;20556;-74
2024/03/15 19:35:11;;;;;;;1.60;1.08;;;14.70;99.90;;;;;;10056899;28;20029;-73
2024/03/15 19:40:04;;;;;;;2.53;1.85;;;14.70;99.90;;;;;;10063446;28;20053;-76
2024/03/15 19:44:54;;;;;;;2.35;0.93;;;14.70;99.90;;;;;;10065853;28;20029;-74
2024/03/15 19:49:45;;;;;;;2.15;1.10;;;14.80;99.90;;;;;;10066925;28;20426;-74
2024/03/15 19:54:35;;;;;;;3.60;1.20;;;14.80;99.90;;;;;;10068102;28;20021;-75
2024/03/15 19:59:26;;;;;;;2.15;1.00;;;14.90;99.90;;;;;;10066003;28;20529;-74
2024/03/15 20:04:20;;;;;;;2.30;0.90;;;14.90;99.90;;;;;;10067627;28;20036;-74
2024/03/15 20:09:13;;;;;;;1.60;1.10;;;14.90;99.90;;;;;;10057816;28;20045;-74
2024/03/15 20:14:05;;;;;;;1.90;1.30;;;15.00;99.90;;;;;;10069548;28;20029;-74
2024/03/15 20:18:57;;;;;;;9.60;1.20;;;15.00;99.90;;;;;;10050713;28;20084;-73
2024/03/15 20:23:47;;;;;;;1.38;1.00;;;15.00;99.90;;;;;;10064561;28;20357;-73
2024/03/15 20:28:38;;;;;;;1.33;0.80;;;14.90;99.90;;;;;;10060399;28;20506;-73
2024/03/15 20:33:29;;;;;;;2.40;0.80;;;14.90;99.90;;;;;;10052769;28;20026;-73
2024/03/15 20:38:21;;;;;;;1.52;0.80;;;14.80;99.90;;;;;;10072113;28;20037;-73
2024/03/15 20:43:12;;;;;;;1.45;1.00;;;14.80;99.90;;;;;;10074530;28;20618;-73
2024/03/15 20:48:03;;;;;;;1.92;0.80;;;14.80;99.90;;;;;;10089446;28;20041;-74
2024/03/15 20:52:54;;;;;;;1.75;0.77;;;14.70;99.90;;;;;;10077004;28;20029;-73
2024/03/15 20:57:45;;;;;;;1.20;0.50;;;14.70;99.90;;;;;;10051742;28;20067;-74
2024/03/15 21:02:36;;;;;;;2.10;1.02;;;14.60;99.90;;;;;;10077027;28;20032;-73
2024/03/15 21:07:26;;;;;;;1.20;0.95;;;14.60;99.90;;;;;;10068549;28;20021;-73
2024/03/15 21:12:17;;;;;;;0.90;0.70;;;14.60;99.90;;;;;;10069879;28;20036;-73
2024/03/15 21:17:08;;;;;;;1.90;1.08;;;14.60;99.90;;;;;;10077145;28;20048;-73
2024/03/15 21:22:01;;;;;;;1.42;0.90;;;14.50;99.90;;;;;;10077510;28;20025;-73
2024/03/15 21:26:52;;;;;;;2.00;0.60;;;14.50;99.90;;;;;;10075613;28;20386;-73
2024/03/15 21:31:43;;;;;;;1.52;0.60;;;14.40;99.90;;;;;;10065378;28;20112;-73
2024/03/15 21:36:34;;;;;;;1.88;0.85;;;14.40;99.90;;;;;;10066051;28;20038;-74
2024/03/15 21:41:25;;;;;;;2.40;1.10;;;14.30;99.90;;;;;;10063925;28;20018;-73
2024/03/15 21:46:31;;;;;;;0.95;0.70;;;14.30;99.90;;;;;;10065927;28;20060;-74
2024/03/15 21:51:23;;;;;;;;;;;14.30;99.90;;;;;;10071596;28;20040;-74
2024/03/15 21:56:15;;;;;;;1.52;0.68;;;14.30;99.90;;;;;;10061582;28;19913;-72
2024/03/15 22:01:06;;;;;;;0.68;0.43;;;14.20;99.90;;;;;;10064261;28;20035;-74
2024/03/15 22:05:57;;;;;;;1.25;0.40;;;14.10;99.90;;;;;;10076486;28;20036;-74
2024/03/15 22:10:53;;;;;;;0.68;0.57;;;14.00;99.90;;;;;;10080191;28;20063;-74
2024/03/15 22:15:43;;;;;;;1.58;0.40;;;14.00;99.90;;;;;;10076211;28;20036;-73
2024/03/15 22:20:35;;;;;;;0.63;0.40;;;14.00;99.90;;;;;;10069122;28;20052;-73
2024/03/15 22:25:28;;;;;;;0.95;0.40;;;13.90;99.90;;;;;;10075100;28;20155;-73
2024/03/15 22:30:19;;;;;;;0.68;0.38;;;13.90;99.90;;;;;;10077438;28;20380;-73
2024/03/15 22:35:10;;;;;;;1.38;0.38;;;13.80;99.90;;;;;;10067462;28;20033;-73
2024/03/15 22:40:01;;;;;;;0.28;0.28;;;13.80;99.90;;;;;;10064343;28;20046;-73
2024/03/15 22:44:52;;;;;;;0.80;0.20;;;13.80;99.90;;;;;;10079987;28;20029;-75
2024/03/15 22:49:43;;;;;;;2.20;0.47;;;13.80;99.90;;;;;;10082138;28;20337;-73
2024/03/15 22:54:33;;;;;;;1.27;0.80;;;13.70;99.90;;;;;;10053269;28;20640;-74
2024/03/15 22:59:24;;;;;;;1.90;0.57;;;13.70;99.90;;;;;;10078579;28;20109;-72
2024/03/15 23:04:15;;;;;;;6.18;0.88;;;13.70;99.90;;;;;;10063770;28;20036;-73
2024/03/15 23:09:06;;;;;;;1.20;0.45;;;13.70;99.90;;;;;;10059674;28;20044;-73
2024/03/15 23:13:57;;;;;;;1.70;0.40;;;13.70;99.90;;;;;;10068836;28;20499;-75
2024/03/15 23:18:48;;;;;;;1.00;0.35;;;13.60;99.90;;;;;;10071873;28;20046;-72
2024/03/15 23:23:39;;;;;;;0.38;0.38;;;13.60;99.90;;;;;;10080052;28;20515;-73
2024/03/15 23:28:30;;;;;;;0.75;0.43;;;13.50;99.90;;;;;;10039869;28;20068;-73
2024/03/15 23:33:24;;;;;;;0.50;0.38;;;13.40;99.90;;;;;;10064794;28;20104;-72
2024/03/15 23:38:17;;;;;;;0.40;0.40;;;13.50;99.90;;;;;;10075810;28;20041;-72
2024/03/15 23:43:08;;;;;;;0.47;0.38;;;13.50;99.90;;;;;;10078893;28;20112;-75
2024/03/15 23:47:59;;;;;;;0.60;0.30;;;13.50;99.90;;;;;;10083255;28;20808;-73
2024/03/15 23:52:49;;;;;;;1.02;0.40;;;13.50;99.90;;;;;;10050933;28;20056;-73
2024/03/15 23:57:40;;;;;;;0.68;0.30;;;13.50;99.90;;;;;;10045908;28;20041;-73
